createdAt,value
2023-12-13T00:00:08.769Z,72.99
2023-12-13T00:02:35.129Z,72.94
2023-12-13T00:05:01.731Z,72.07
2023-12-13T00:07:28.309Z,72.27
2023-12-13T00:09:54.680Z,72.59
2023-12-13T00:12:21.062Z,73.52
2023-12-13T00:14:47.410Z,73.26
2023-12-13T00:17:15.556Z,71.76
2023-12-13T00:19:42.158Z,71.83
2023-12-13T00:22:08.642Z,71.71
2023-12-13T00:24:35.223Z,71.20
2023-12-13T00:27:01.660Z,70.94
2023-12-13T00:29:28.054Z,70.99
2023-12-13T00:31:54.549Z,71.46
2023-12-13T00:34:20.949Z,72.04
2023-12-13T00:36:47.351Z,70.13
2023-12-13T00:39:13.711Z,70.48
2023-12-13T00:41:40.090Z,69.94
2023-12-13T00:44:06.531Z,69.69
2023-12-13T00:46:32.919Z,69.41
2023-12-13T00:48:59.571Z,69.71
2023-12-13T00:51:26.426Z,70.08
2023-12-13T00:53:52.855Z,70.09
2023-12-13T00:56:19.358Z,70.08
2023-12-13T00:58:49.017Z,69.90
2023-12-13T01:01:17.242Z,70.35
2023-12-13T01:03:43.832Z,70.60
2023-12-13T01:06:10.820Z,70.90
2023-12-13T01:08:38.857Z,70.54
2023-12-13T01:11:12.998Z,70.21
2023-12-13T01:13:39.942Z,71.14
2023-12-13T01:16:06.629Z,71.28
2023-12-13T01:18:33.129Z,71.05
2023-12-13T01:20:59.606Z,70.34
2023-12-13T01:23:26.045Z,70.53
2023-12-13T01:25:52.467Z,70.23
2023-12-13T01:28:18.973Z,70.93
2023-12-13T01:30:45.483Z,71.77
2023-12-13T01:33:11.932Z,71.99
2023-12-13T01:35:38.400Z,72.99
2023-12-13T01:38:04.801Z,74.07
2023-12-13T01:40:31.263Z,72.54
2023-12-13T01:42:57.645Z,73.07
2023-12-13T01:45:24.009Z,71.58
2023-12-13T01:47:50.476Z,71.32
2023-12-13T01:50:17.343Z,71.83
2023-12-13T01:52:44.030Z,72.34
2023-12-13T01:55:11.982Z,71.85
2023-12-13T01:57:39.957Z,71.79
2023-12-13T02:00:07.401Z,71.84
2023-12-13T02:02:33.865Z,70.41
2023-12-13T02:05:02.184Z,69.70
2023-12-13T02:07:28.841Z,70.17
2023-12-13T02:09:55.456Z,70.06
2023-12-13T02:12:22.091Z,70.49
2023-12-13T02:14:48.430Z,70.04
2023-12-13T02:17:14.871Z,69.80
2023-12-13T02:19:41.314Z,69.60
2023-12-13T02:22:09.024Z,70.22
2023-12-13T02:24:38.284Z,69.62
2023-12-13T02:27:05.060Z,69.27
2023-12-13T02:29:31.747Z,69.63
2023-12-13T02:31:58.235Z,70.38
2023-12-13T02:34:24.775Z,70.33
2023-12-13T02:36:51.169Z,69.48
2023-12-13T02:39:17.528Z,70.66
2023-12-13T02:41:43.956Z,70.19
2023-12-13T02:44:10.355Z,69.81
2023-12-13T02:46:36.964Z,70.16
2023-12-13T02:49:03.528Z,70.37
2023-12-13T02:51:29.941Z,70.35
2023-12-13T02:53:56.378Z,69.32
2023-12-13T02:56:22.799Z,70.31
2023-12-13T02:58:49.276Z,69.11
2023-12-13T03:01:15.741Z,69.52
2023-12-13T03:03:42.236Z,70.04
2023-12-13T03:06:09.210Z,69.34
2023-12-13T03:08:37.358Z,70.45
2023-12-13T03:11:03.884Z,70.27
2023-12-13T03:13:30.341Z,70.12
2023-12-13T03:15:56.767Z,70.03
2023-12-13T03:18:23.766Z,69.41
2023-12-13T03:20:50.234Z,69.65
2023-12-13T03:23:16.603Z,70.16
2023-12-13T03:25:43.040Z,69.80
2023-12-13T03:28:09.876Z,69.59
2023-12-13T03:30:36.358Z,70.77
2023-12-13T03:33:03.031Z,70.72
2023-12-13T03:35:29.453Z,70.53
2023-12-13T03:37:55.915Z,70.26
2023-12-13T03:40:22.371Z,70.31
2023-12-13T03:42:48.791Z,70.66
2023-12-13T03:45:15.282Z,70.65
2023-12-13T03:47:42.196Z,70.41
2023-12-13T03:50:09.875Z,69.47
2023-12-13T03:52:36.344Z,69.63
2023-12-13T03:55:02.873Z,70.12
2023-12-13T03:57:29.325Z,69.05
2023-12-13T03:59:55.755Z,69.62
2023-12-13T04:02:22.139Z,69.95
2023-12-13T04:04:48.607Z,69.89
2023-12-13T04:07:15.063Z,69.41
2023-12-13T04:09:41.476Z,69.09
2023-12-13T04:12:08.006Z,69.31
2023-12-13T04:14:34.567Z,69.47
2023-12-13T04:17:00.963Z,70.85
2023-12-13T04:19:27.404Z,70.65
2023-12-13T04:21:53.795Z,71.47
2023-12-13T04:24:20.194Z,71.13
2023-12-13T04:26:46.794Z,70.75
2023-12-13T04:29:13.291Z,70.90
2023-12-13T04:31:40.520Z,71.34
2023-12-13T04:34:06.953Z,71.19
2023-12-13T04:36:33.409Z,71.49
2023-12-13T04:38:59.856Z,69.86
2023-12-13T04:41:26.400Z,70.63
2023-12-13T04:43:52.842Z,70.05
2023-12-13T04:46:19.392Z,70.54
2023-12-13T04:48:45.811Z,70.22
2023-12-13T04:51:12.234Z,70.22
2023-12-13T04:53:38.611Z,69.88
2023-12-13T04:56:05.818Z,70.62
2023-12-13T04:58:32.337Z,69.21
2023-12-13T05:00:59.138Z,68.81
2023-12-13T05:03:27.617Z,68.68
2023-12-13T05:05:54.171Z,69.39
2023-12-13T05:08:20.629Z,70.17
2023-12-13T05:10:47.147Z,69.83
2023-12-13T05:13:13.701Z,69.55
2023-12-13T05:15:40.114Z,69.36
2023-12-13T05:18:06.583Z,69.06
2023-12-13T05:20:33.986Z,69.47
2023-12-13T05:23:00.464Z,69.15
2023-12-13T05:25:27.370Z,68.29
2023-12-13T05:27:53.805Z,68.83
2023-12-13T05:30:20.293Z,69.68
2023-12-13T05:32:46.744Z,69.85
2023-12-13T05:35:13.178Z,70.19
2023-12-13T05:37:39.644Z,70.39
2023-12-13T05:40:06.837Z,70.19
2023-12-13T05:42:34.498Z,69.97
2023-12-13T05:45:00.953Z,70.10
2023-12-13T05:47:27.452Z,69.45
2023-12-13T05:49:53.975Z,69.85
2023-12-13T05:52:20.408Z,70.12
2023-12-13T05:54:46.786Z,70.49
2023-12-13T05:57:13.506Z,70.89
2023-12-13T05:59:39.917Z,70.88
2023-12-13T06:02:06.443Z,70.84
2023-12-13T06:04:33.208Z,70.57
2023-12-13T06:07:05.634Z,70.80
2023-12-13T06:09:31.991Z,71.15
2023-12-13T06:11:59.198Z,69.68
2023-12-13T06:14:25.556Z,69.87
2023-12-13T06:16:52.075Z,70.35
2023-12-13T06:19:18.611Z,70.42
2023-12-13T06:21:45.019Z,70.23
2023-12-13T06:24:11.429Z,71.64
2023-12-13T06:26:37.802Z,70.99
2023-12-13T06:29:04.156Z,71.79
2023-12-13T06:31:31.370Z,70.87
2023-12-13T06:33:57.835Z,70.60
2023-12-13T06:36:24.254Z,71.61
2023-12-13T06:38:50.851Z,71.97
2023-12-13T06:41:17.281Z,71.92
2023-12-13T06:43:43.713Z,71.76
2023-12-13T06:46:10.107Z,72.16
2023-12-13T06:48:36.603Z,71.34
2023-12-13T06:51:03.075Z,71.95
2023-12-13T06:53:29.434Z,71.74
2023-12-13T06:55:56.394Z,71.75
2023-12-13T06:58:23.635Z,71.32
2023-12-13T07:03:16.917Z,72.72
2023-12-13T07:05:43.496Z,73.01
2023-12-13T07:08:10.028Z,72.35
2023-12-13T07:10:36.569Z,71.57
2023-12-13T07:13:03.210Z,71.80
2023-12-13T07:15:29.570Z,70.90
2023-12-13T07:17:56.021Z,70.67
2023-12-13T07:20:23.004Z,70.46
2023-12-13T07:22:51.285Z,69.85
2023-12-13T07:25:17.906Z,70.07
2023-12-13T07:27:44.303Z,70.25
2023-12-13T07:30:11.064Z,70.82
2023-12-13T07:32:37.807Z,70.56
2023-12-13T07:35:04.874Z,70.19
2023-12-13T07:37:31.400Z,70.83
2023-12-13T07:39:57.801Z,70.80
2023-12-13T07:42:24.166Z,70.28
2023-12-13T07:44:50.542Z,70.41
2023-12-13T07:47:16.934Z,70.30
2023-12-13T07:49:43.604Z,70.57
2023-12-13T07:52:10.120Z,70.84
2023-12-13T07:54:37.075Z,70.62
2023-12-13T07:57:04.458Z,70.39
2023-12-13T07:59:30.897Z,71.09
2023-12-13T08:01:57.339Z,71.01
2023-12-13T08:04:23.822Z,71.46
2023-12-13T08:06:50.225Z,71.36
2023-12-13T08:09:19.842Z,72.30
2023-12-13T08:11:47.973Z,71.18
2023-12-13T08:14:17.788Z,70.78
2023-12-13T08:16:44.330Z,70.41
2023-12-13T08:19:10.760Z,70.28
2023-12-13T08:21:41.941Z,70.45
2023-12-13T08:24:10.261Z,70.34
2023-12-13T08:26:36.651Z,70.26
2023-12-13T08:29:07.115Z,69.70
2023-12-13T08:31:34.677Z,69.72
2023-12-13T08:34:01.793Z,69.12
2023-12-13T08:36:28.551Z,69.51
2023-12-13T08:38:55.704Z,69.37
2023-12-13T08:41:22.150Z,69.55
2023-12-13T08:43:48.648Z,71.17
2023-12-13T08:46:15.183Z,71.34
2023-12-13T08:48:41.891Z,71.79
2023-12-13T08:51:08.570Z,71.75
2023-12-13T08:53:35.568Z,71.72
2023-12-13T08:56:04.544Z,71.96
2023-12-13T08:58:31.903Z,71.67
2023-12-13T09:00:58.351Z,71.92
2023-12-13T09:03:26.324Z,72.29
2023-12-13T09:05:53.063Z,71.35
2023-12-13T09:08:19.492Z,71.36
2023-12-13T09:10:45.927Z,71.31
2023-12-13T09:13:12.446Z,71.82
2023-12-13T09:15:38.883Z,72.89
2023-12-13T09:18:05.319Z,73.06
2023-12-13T09:20:31.883Z,72.84
2023-12-13T09:22:58.352Z,72.01
2023-12-13T09:25:26.605Z,72.49
2023-12-13T09:27:54.156Z,71.93
2023-12-13T09:30:20.773Z,71.57
2023-12-13T09:32:48.275Z,72.02
2023-12-13T09:35:15.553Z,72.55
2023-12-13T09:37:42.744Z,72.72
2023-12-13T09:40:17.887Z,72.40
2023-12-13T09:42:46.732Z,72.81
2023-12-13T09:45:18.313Z,72.12
2023-12-13T09:47:45.872Z,71.54
2023-12-13T09:50:12.730Z,70.95
2023-12-13T09:52:39.885Z,70.26
2023-12-13T09:55:08.551Z,69.45
2023-12-13T09:57:35.149Z,68.92
2023-12-13T10:00:01.552Z,68.77
2023-12-13T10:02:27.913Z,68.36
2023-12-13T10:04:55.645Z,68.76
2023-12-13T10:07:23.116Z,67.98
2023-12-13T10:09:49.854Z,67.37
2023-12-13T10:12:17.108Z,66.60
2023-12-13T10:14:44.329Z,66.18
2023-12-13T10:17:17.125Z,65.65
2023-12-13T10:19:46.686Z,65.95
2023-12-13T10:22:13.167Z,65.46
2023-12-13T10:24:40.517Z,64.91
2023-12-13T10:27:08.026Z,64.51
2023-12-13T10:29:34.374Z,62.78
2023-12-13T10:32:01.784Z,63.20
2023-12-13T10:34:29.187Z,62.28
2023-12-13T10:36:56.341Z,61.81
2023-12-13T10:39:25.374Z,60.30
2023-12-13T10:41:56.925Z,60.00
2023-12-13T10:44:24.855Z,58.99
2023-12-13T10:46:59.885Z,37.73
2023-12-13T10:49:27.293Z,29.04
2023-12-13T10:51:54.724Z,33.63
2023-12-13T10:54:21.816Z,43.46
2023-12-13T10:56:49.085Z,50.62
2023-12-13T10:59:16.760Z,52.08
2023-12-13T11:01:44.130Z,39.44
2023-12-13T11:04:17.884Z,39.94
2023-12-13T11:06:48.188Z,44.99
2023-12-13T11:09:18.612Z,50.23
2023-12-13T11:11:46.016Z,53.60
2023-12-13T11:14:16.270Z,54.30
2023-12-13T11:16:46.239Z,55.78
2023-12-13T11:19:16.011Z,54.85
2023-12-13T11:21:46.922Z,55.32
2023-12-13T11:24:21.764Z,54.65
2023-12-13T11:26:52.167Z,54.56
2023-12-13T11:29:23.994Z,57.16
2023-12-13T11:31:57.860Z,59.20
2023-12-13T11:34:33.427Z,60.14
2023-12-13T11:37:01.637Z,60.64
2023-12-13T11:39:31.892Z,61.81
2023-12-13T11:41:58.624Z,61.11
2023-12-13T11:44:35.851Z,61.15
2023-12-13T11:47:07.901Z,60.07
2023-12-13T11:49:34.349Z,57.73
2023-12-13T11:52:02.772Z,33.60
2023-12-13T11:54:29.147Z,36.53
2023-12-13T11:56:55.595Z,26.95
2023-12-13T11:59:22.630Z,25.63
2023-12-13T12:01:49.246Z,24.79
2023-12-13T12:04:20.412Z,23.00
2023-12-13T12:06:52.947Z,24.75
2023-12-13T12:09:22.631Z,26.92
2023-12-13T12:11:55.712Z,25.01
2023-12-13T12:14:31.761Z,21.36
2023-12-13T12:17:00.762Z,27.06
2023-12-13T12:19:28.536Z,22.98
2023-12-13T12:21:54.980Z,25.37
2023-12-13T12:24:29.305Z,27.45
2023-12-13T12:27:08.818Z,32.43
2023-12-13T12:29:35.348Z,38.84
2023-12-13T12:32:01.906Z,40.42
2023-12-13T12:34:28.455Z,40.34
2023-12-13T12:36:55.202Z,34.58
2023-12-13T12:39:22.057Z,33.37
2023-12-13T12:41:48.458Z,41.47
2023-12-13T12:44:14.847Z,42.28
2023-12-13T12:46:42.711Z,43.48
2023-12-13T12:49:09.605Z,46.13
2023-12-13T12:51:37.659Z,47.72
2023-12-13T12:54:04.129Z,48.84
2023-12-13T12:56:30.517Z,49.64
2023-12-13T12:58:56.919Z,49.90
2023-12-13T13:01:23.502Z,48.92
2023-12-13T13:03:51.949Z,49.00
2023-12-13T13:06:18.495Z,47.14
2023-12-13T13:08:44.941Z,43.86
2023-12-13T13:11:11.385Z,41.99
2023-12-13T13:13:37.894Z,42.54
2023-12-13T13:16:04.810Z,42.74
2023-12-13T13:18:33.439Z,42.23
2023-12-13T13:21:00.117Z,38.95
2023-12-13T13:23:27.021Z,38.32
2023-12-13T13:25:53.395Z,36.75
2023-12-13T13:28:19.826Z,37.45
2023-12-13T13:30:46.417Z,39.58
2023-12-13T13:33:12.960Z,38.95
2023-12-13T13:35:40.070Z,38.19
2023-12-13T13:38:06.519Z,39.96
2023-12-13T13:40:33.347Z,41.29
2023-12-13T13:43:00.889Z,42.92
2023-12-13T13:45:27.860Z,45.90
2023-12-13T13:47:55.982Z,42.70
2023-12-13T13:50:23.636Z,40.23
2023-12-13T13:52:50.200Z,40.13
2023-12-13T13:55:18.137Z,41.57
2023-12-13T13:57:45.400Z,40.79
2023-12-13T14:00:14.203Z,40.14
2023-12-13T14:02:40.635Z,37.91
2023-12-13T14:05:07.650Z,39.32
2023-12-13T14:07:34.455Z,39.77
2023-12-13T14:10:01.408Z,39.22
2023-12-13T14:12:29.213Z,40.10
2023-12-13T14:14:55.694Z,40.37
2023-12-13T14:17:22.045Z,42.24
2023-12-13T14:19:48.439Z,41.89
2023-12-13T14:22:14.928Z,41.76
2023-12-13T14:24:42.651Z,41.62
2023-12-13T14:27:09.386Z,41.98
2023-12-13T14:29:36.376Z,41.11
2023-12-13T14:32:02.933Z,42.86
2023-12-13T14:34:29.358Z,42.53
2023-12-13T14:36:55.724Z,42.23
2023-12-13T14:39:24.256Z,43.24
2023-12-13T14:41:50.766Z,43.88
2023-12-13T14:44:18.091Z,44.49
2023-12-13T14:46:44.498Z,46.07
2023-12-13T14:49:11.741Z,47.99
2023-12-13T14:51:38.875Z,48.66
2023-12-13T14:54:05.407Z,48.44
2023-12-13T14:56:32.525Z,49.33
2023-12-13T14:58:59.700Z,48.14
2023-12-13T15:01:28.478Z,48.39
2023-12-13T15:03:55.113Z,47.15
2023-12-13T15:06:22.691Z,48.22
2023-12-13T15:08:50.450Z,48.57
2023-12-13T15:11:17.835Z,49.93
2023-12-13T15:13:44.197Z,51.68
2023-12-13T15:16:10.765Z,52.23
2023-12-13T15:18:37.241Z,52.78
2023-12-13T15:21:03.919Z,53.39
2023-12-13T15:23:30.623Z,53.65
2023-12-13T15:25:57.369Z,54.30
2023-12-13T15:28:23.844Z,54.38
2023-12-13T15:30:50.233Z,55.43
2023-12-13T15:33:16.909Z,55.25
2023-12-13T15:35:45.550Z,55.44
2023-12-13T15:38:12.165Z,55.67
2023-12-13T15:40:38.745Z,55.89
2023-12-13T15:43:05.125Z,56.21
2023-12-13T15:45:31.482Z,56.37
2023-12-13T15:47:57.876Z,56.59
2023-12-13T15:50:24.348Z,56.95
2023-12-13T15:52:50.796Z,56.88
2023-12-13T15:55:17.582Z,57.80
2023-12-13T15:57:43.954Z,57.35
2023-12-13T16:00:10.967Z,57.37
2023-12-13T16:02:37.937Z,57.89
2023-12-13T16:05:05.852Z,58.00
2023-12-13T16:07:32.567Z,58.56
2023-12-13T16:09:59.201Z,58.84
2023-12-13T16:12:25.573Z,58.22
2023-12-13T16:14:51.994Z,58.50
2023-12-13T16:17:18.737Z,58.97
2023-12-13T16:19:45.106Z,58.49
2023-12-13T16:22:11.482Z,59.34
2023-12-13T16:24:37.851Z,59.63
2023-12-13T16:27:04.673Z,59.66
2023-12-13T16:29:31.467Z,61.77
2023-12-13T16:31:58.176Z,60.96
2023-12-13T16:34:24.871Z,60.62
2023-12-13T16:36:52.100Z,60.11
2023-12-13T16:39:20.002Z,60.49
2023-12-13T16:41:47.069Z,59.76
2023-12-13T16:44:13.448Z,60.19
2023-12-13T16:46:39.874Z,60.81
2023-12-13T16:49:06.600Z,60.23
2023-12-13T16:51:33.018Z,60.14
2023-12-13T16:53:59.851Z,60.26
2023-12-13T16:56:26.235Z,59.84
2023-12-13T16:58:52.620Z,59.95
2023-12-13T17:01:19.150Z,59.83
2023-12-13T17:03:49.980Z,59.75
2023-12-13T17:06:16.638Z,59.79
2023-12-13T17:08:43.187Z,59.75
2023-12-13T17:11:09.599Z,59.71
2023-12-13T17:13:36.039Z,58.20
2023-12-13T17:16:02.824Z,59.40
2023-12-13T17:18:31.727Z,59.87
2023-12-13T17:20:58.177Z,59.28
2023-12-13T17:23:24.665Z,58.64
2023-12-13T17:25:51.233Z,59.90
2023-12-13T17:28:17.814Z,60.39
2023-12-13T17:30:44.251Z,60.66
2023-12-13T17:33:10.697Z,61.33
2023-12-13T17:35:37.078Z,61.73
2023-12-13T17:38:03.502Z,62.17
2023-12-13T17:40:30.613Z,62.20
2023-12-13T17:42:57.081Z,61.70
2023-12-13T17:45:23.488Z,60.88
2023-12-13T17:47:49.945Z,60.93
2023-12-13T17:50:16.588Z,61.41
2023-12-13T17:52:43.564Z,61.00
2023-12-13T17:55:10.038Z,61.39
2023-12-13T17:57:36.471Z,63.20
2023-12-13T18:00:04.303Z,64.00
2023-12-13T18:02:30.723Z,65.27
2023-12-13T18:05:00.619Z,65.20
2023-12-13T18:07:27.166Z,64.80
2023-12-13T18:09:53.584Z,64.80
2023-12-13T18:12:19.922Z,63.62
2023-12-13T18:14:46.365Z,63.36
2023-12-13T18:17:13.213Z,64.30
2023-12-13T18:19:40.236Z,63.37
2023-12-13T18:22:06.626Z,62.93
2023-12-13T18:24:33.142Z,63.53
2023-12-13T18:26:59.621Z,63.73
2023-12-13T18:29:26.062Z,64.18
2023-12-13T18:31:53.161Z,63.61
2023-12-13T18:34:19.739Z,63.35
2023-12-13T18:36:46.182Z,63.50
2023-12-13T18:39:13.867Z,63.46
2023-12-13T18:41:40.308Z,63.19
2023-12-13T18:44:07.074Z,63.91
2023-12-13T18:46:33.575Z,64.72
2023-12-13T18:49:00.015Z,64.79
2023-12-13T18:51:26.393Z,64.92
2023-12-13T18:53:52.762Z,65.75
2023-12-13T18:56:19.121Z,65.88
2023-12-13T18:58:45.552Z,65.54
2023-12-13T19:01:11.978Z,65.78
2023-12-13T19:03:38.503Z,65.96
2023-12-13T19:06:05.392Z,66.22
2023-12-13T19:08:31.856Z,66.18
2023-12-13T19:10:58.312Z,66.06
2023-12-13T19:13:24.760Z,65.71
2023-12-13T19:15:51.153Z,65.79
2023-12-13T19:18:18.130Z,66.82
2023-12-13T19:20:46.034Z,66.34
2023-12-13T19:23:13.256Z,67.06
2023-12-13T19:25:39.845Z,67.11
2023-12-13T19:28:06.363Z,66.70
2023-12-13T19:30:32.757Z,66.70
2023-12-13T19:32:59.166Z,67.04
2023-12-13T19:35:25.623Z,66.72
2023-12-13T19:37:52.126Z,66.55
2023-12-13T19:40:18.484Z,66.76
2023-12-13T19:42:45.284Z,66.85
2023-12-13T19:45:11.984Z,66.93
2023-12-13T19:47:38.851Z,67.15
2023-12-13T19:50:06.067Z,67.15
2023-12-13T19:52:32.481Z,67.24
2023-12-13T19:54:58.963Z,67.58
2023-12-13T19:57:25.499Z,67.08
2023-12-13T19:59:52.058Z,67.27
2023-12-13T20:02:18.457Z,67.49
2023-12-13T20:04:45.507Z,67.44
2023-12-13T20:07:11.988Z,67.41
2023-12-13T20:09:38.335Z,66.84
2023-12-13T20:12:05.184Z,67.18
2023-12-13T20:14:31.565Z,66.88
2023-12-13T20:16:58.002Z,67.71
2023-12-13T20:19:24.526Z,67.70
2023-12-13T20:21:50.993Z,68.03
2023-12-13T20:24:17.376Z,68.76
2023-12-13T20:26:44.232Z,68.63
2023-12-13T20:29:10.600Z,68.97
2023-12-13T20:31:36.985Z,69.48
2023-12-13T20:34:03.454Z,69.01
2023-12-13T20:36:29.839Z,68.06
2023-12-13T20:38:56.199Z,67.86
2023-12-13T20:41:22.594Z,68.17
2023-12-13T20:43:49.029Z,68.13
2023-12-13T20:46:15.479Z,69.04
2023-12-13T20:48:41.905Z,68.61
2023-12-13T20:51:08.674Z,68.75
2023-12-13T20:53:35.167Z,68.49
2023-12-13T20:56:01.713Z,68.55
2023-12-13T20:58:28.605Z,68.43
2023-12-13T21:00:55.023Z,68.62
2023-12-13T21:03:21.517Z,68.96
2023-12-13T21:05:47.984Z,68.60
2023-12-13T21:08:14.634Z,68.12
2023-12-13T21:10:41.491Z,69.07
2023-12-13T21:13:08.147Z,68.21
2023-12-13T21:15:34.531Z,68.49
2023-12-13T21:18:01.017Z,68.48
2023-12-13T21:20:28.098Z,67.46
2023-12-13T21:22:54.691Z,67.94
2023-12-13T21:25:21.103Z,67.46
2023-12-13T21:27:47.494Z,67.38
2023-12-13T21:30:13.997Z,67.24
2023-12-13T21:32:40.846Z,67.63
2023-12-13T21:35:08.068Z,68.04
2023-12-13T21:37:34.517Z,68.08
2023-12-13T21:40:00.980Z,68.06
2023-12-13T21:42:27.478Z,67.97
2023-12-13T21:44:53.829Z,67.38
2023-12-13T21:47:20.871Z,67.65
2023-12-13T21:49:47.759Z,67.38
2023-12-13T21:52:14.232Z,67.44
2023-12-13T21:54:40.595Z,67.60
2023-12-13T21:57:06.947Z,68.95
2023-12-13T21:59:33.624Z,68.83
2023-12-13T22:02:04.343Z,68.27
2023-12-13T22:04:30.940Z,67.96
2023-12-13T22:06:57.352Z,68.17
2023-12-13T22:09:23.726Z,68.21
2023-12-13T22:11:50.216Z,68.47
2023-12-13T22:14:16.774Z,68.81
2023-12-13T22:16:45.322Z,69.36
2023-12-13T22:19:31.770Z,68.97
2023-12-13T22:21:58.153Z,68.91
2023-12-13T22:24:24.495Z,67.89
2023-12-13T22:26:50.865Z,68.12
2023-12-13T22:29:17.268Z,68.08
2023-12-13T22:31:43.645Z,67.89
2023-12-13T22:34:12.256Z,68.30
2023-12-13T22:36:40.273Z,68.28
2023-12-13T22:39:06.834Z,68.27
2023-12-13T22:41:33.196Z,68.29
2023-12-13T22:43:59.583Z,67.77
2023-12-13T22:46:26.098Z,68.49
2023-12-13T22:48:52.492Z,68.55
2023-12-13T22:51:18.864Z,68.93
2023-12-13T22:53:45.222Z,69.18
2023-12-13T22:56:11.724Z,69.77
2023-12-13T22:58:38.198Z,70.08
2023-12-13T23:01:04.715Z,70.11
2023-12-13T23:03:31.178Z,69.07
2023-12-13T23:05:57.665Z,69.21
2023-12-13T23:08:24.089Z,68.78
2023-12-13T23:10:51.704Z,68.80
2023-12-13T23:13:18.057Z,68.62
2023-12-13T23:15:44.415Z,68.24
2023-12-13T23:18:10.894Z,67.93
2023-12-13T23:20:37.326Z,67.49
2023-12-13T23:23:03.742Z,67.86
2023-12-13T23:25:30.203Z,68.38
2023-12-13T23:27:56.604Z,69.06
2023-12-13T23:30:22.990Z,68.97
2023-12-13T23:32:51.124Z,68.83
2023-12-13T23:35:17.755Z,69.21
2023-12-13T23:37:44.332Z,68.51
2023-12-13T23:40:11.586Z,68.33
2023-12-13T23:42:37.983Z,68.37
2023-12-13T23:45:04.941Z,68.59
2023-12-13T23:47:31.362Z,68.60
2023-12-13T23:49:57.888Z,68.31
2023-12-13T23:52:24.261Z,68.19
2023-12-13T23:54:50.690Z,68.86
2023-12-13T23:57:17.039Z,70.22
2023-12-13T23:59:43.416Z,70.60
